createdAt,value
2018-09-08T04:02:53.891Z,6.80
2018-09-08T04:13:00.172Z,8.07
2018-09-08T04:23:02.712Z,7.23
2018-09-08T04:33:24.808Z,6.90
2018-09-08T04:43:27.331Z,6.90
2018-09-08T05:04:15.808Z,7.43
2018-09-08T05:14:18.386Z,7.67
2018-09-08T05:24:34.112Z,7.13
2018-09-08T05:34:36.611Z,7.30
2018-09-08T05:44:48.851Z,7.60
2018-09-08T05:54:51.386Z,6.47
2018-09-08T06:04:53.956Z,9.50
2018-09-08T06:14:56.448Z,8.13
2018-09-08T06:25:00.043Z,7.80
2018-09-08T06:35:02.584Z,8.00
2018-09-08T06:45:05.339Z,7.60
2018-09-08T06:55:11.791Z,8.20
2018-09-08T07:05:18.996Z,8.83
2018-09-08T07:15:22.158Z,8.37
2018-09-08T07:25:26.911Z,8.73
2018-09-08T07:35:30.477Z,8.67
2018-09-08T07:45:33.423Z,7.73
2018-09-08T07:55:35.994Z,8.60
2018-09-08T08:05:40.605Z,8.07
2018-09-08T08:15:45.410Z,8.67
2018-09-08T08:25:48.166Z,8.77
2018-09-08T08:35:50.887Z,9.43
2018-09-08T08:45:53.393Z,6.60
2018-09-08T08:55:56.761Z,6.10
2018-09-08T09:05:59.918Z,6.03
2018-09-08T09:16:02.513Z,3.90
2018-09-08T09:26:05.152Z,4.17
2018-09-08T09:36:08.778Z,4.10
2018-09-08T09:46:19.664Z,3.90
2018-09-08T09:56:22.182Z,3.20
2018-09-08T10:06:24.739Z,3.97
2018-09-08T10:16:27.479Z,3.57
2018-09-08T10:26:31.055Z,3.30
2018-09-08T10:36:34.579Z,3.93
2018-09-08T10:46:37.048Z,3.80
2018-09-08T10:56:41.546Z,3.60
2018-09-08T11:06:43.999Z,3.70
2018-09-08T11:16:46.463Z,3.03
2018-09-08T11:26:48.954Z,2.90
2018-09-08T11:37:07.035Z,2.83
2018-09-08T11:47:09.549Z,2.70
2018-09-08T11:57:12.067Z,3.10
2018-09-08T12:07:18.252Z,3.37
2018-09-08T12:17:20.738Z,2.90
2018-09-08T12:27:23.222Z,2.50
2018-09-08T12:37:31.595Z,2.60
2018-09-08T12:47:36.223Z,2.47
2018-09-08T12:57:38.723Z,2.83
2018-09-08T13:07:45.719Z,2.67
2018-09-08T13:17:51.728Z,2.40
2018-09-08T13:27:54.255Z,2.67
2018-09-08T13:37:56.754Z,2.63
2018-09-08T13:47:59.375Z,2.50
2018-09-08T13:58:13.171Z,2.40
2018-09-08T14:08:29.839Z,2.17
2018-09-08T14:18:48.753Z,2.67
2018-09-08T14:28:51.512Z,2.47
2018-09-08T14:39:10.900Z,2.50
2018-09-08T14:49:13.380Z,2.13
2018-09-08T14:59:19.340Z,1.93
2018-09-08T15:09:21.848Z,1.77
2018-09-08T15:19:25.481Z,2.03
2018-09-08T15:29:27.959Z,1.63
2018-09-08T15:39:48.885Z,2.20
2018-09-08T15:49:51.434Z,2.17
2018-09-08T15:59:54.083Z,1.90
2018-09-08T16:10:10.223Z,1.90
2018-09-08T16:20:12.833Z,2.10
2018-09-08T16:30:15.330Z,1.90
2018-09-08T16:40:34.289Z,2.10
2018-09-08T16:50:49.304Z,2.07
2018-09-08T17:00:51.935Z,2.00
2018-09-08T17:11:00.976Z,2.23
2018-09-08T17:31:48.211Z,2.40
2018-09-08T17:42:09.358Z,2.10
2018-09-08T17:52:18.934Z,2.50
2018-09-08T18:13:02.207Z,4.30
2018-09-08T18:23:09.417Z,3.40
2018-09-08T18:33:11.986Z,11.33
2018-09-08T18:43:14.489Z,11.07
2018-09-08T18:53:19.063Z,5.03
2018-09-08T19:03:21.589Z,3.47
2018-09-08T19:13:24.163Z,4.47
2018-09-08T19:23:26.724Z,5.17
2018-09-08T19:33:29.371Z,3.43
2018-09-08T19:43:33.011Z,3.70
2018-09-08T19:53:41.239Z,4.07
2018-09-08T20:03:43.906Z,4.70
2018-09-08T20:13:46.467Z,5.77
2018-09-08T20:23:48.950Z,6.40
2018-09-08T20:33:51.503Z,5.30
2018-09-08T20:43:55.107Z,5.60
2018-09-08T20:53:57.640Z,4.73
2018-09-08T21:04:02.290Z,5.83
2018-09-08T21:14:10.088Z,8.10
2018-09-08T21:24:12.643Z,6.83
2018-09-08T21:34:15.443Z,7.50
2018-09-08T21:44:18.120Z,4.97
2018-09-08T21:54:20.767Z,3.57
2018-09-08T22:04:23.342Z,4.90
2018-09-08T22:14:32.329Z,4.60
2018-09-08T22:24:34.825Z,4.13
2018-09-08T22:34:43.617Z,4.63
2018-09-08T22:55:13.605Z,4.93
2018-09-08T23:05:30.735Z,3.80
2018-09-08T23:15:33.279Z,5.80
2018-09-08T23:25:39.029Z,4.03
2018-09-08T23:35:41.772Z,5.03
2018-09-08T23:45:46.422Z,4.97
2018-09-08T23:55:48.896Z,5.10
